Time;durP1;ratioP1;P1;durP2;ratioP2;P2;SDS_P1;SDS_P2;PMS_P1;PMS_P2;Temp;Humidity;BMP_temperature;BMP_pressure;BME280_temperature;BME280_humidity;BME280_pressure;Samples;Min_cycle;Max_cycle;Signal;HPM_P1;HPM_P2
2022/02/17 00:01:59;;;;;;;21.00;17.67;;;;;;;;;;5018734;28;20153;-75
2022/02/17 00:04:26;;;;;;;20.95;16.88;;;;;;;;;;5013916;28;20151;-73
2022/02/17 00:06:52;;;;;;;22.60;18.33;;;;;;;;;;5011084;28;20530;-73
2022/02/17 00:09:18;;;;;;;21.15;18.85;;;;;;;;;;5016084;28;20483;-72
2022/02/17 00:11:44;;;;;;;20.50;17.55;;;;;;;;;;5015595;28;20021;-73
2022/02/17 00:14:10;;;;;;;22.20;19.30;;;;;;;;;;5015991;28;20569;-73
2022/02/17 00:16:36;;;;;;;22.20;18.83;;;;;;;;;;5015584;28;20033;-73
2022/02/17 00:19:04;;;;;;;24.10;19.33;;;;;;;;;;5020314;28;20038;-72
2022/02/17 00:21:32;;;;;;;21.35;18.13;;;;;;;;;;5014357;28;20430;-73
2022/02/17 00:23:58;;;;;;;23.70;20.08;;;;;;;;;;5015264;28;20026;-72
2022/02/17 00:26:24;;;;;;;28.45;20.42;;;;;;;;;;5016882;28;20033;-76
2022/02/17 00:28:56;;;;;;;25.73;19.10;;;;;;;;;;5013446;28;20021;-73
2022/02/17 00:31:22;;;;;;;26.88;19.15;;;;;;;;;;5014557;28;20402;-72
2022/02/17 00:33:48;;;;;;;26.25;19.73;;;;;;;;;;5014907;28;20103;-73
2022/02/17 00:36:15;;;;;;;23.85;18.67;;;;;;;;;;5016295;28;20033;-72
2022/02/17 00:38:42;;;;;;;21.52;18.08;;;;;;;;;;5011810;28;20033;-75
2022/02/17 00:41:08;;;;;;;18.92;15.48;;;;;;;;;;5000372;28;20065;-71
2022/02/17 00:43:34;;;;;;;17.73;15.13;;;;;;;;;;5012266;28;20072;-72
2022/02/17 00:46:01;;;;;;;18.65;14.38;;;;;;;;;;5017601;28;20022;-73
2022/02/17 00:48:29;;;;;;;14.68;13.13;;;;;;;;;;5001824;28;20065;-72
2022/02/17 00:51:00;;;;;;;15.52;13.38;;;;;;;;;;5014735;28;20132;-73
2022/02/17 00:53:30;;;;;;;13.33;11.77;;;;;;;;;;4999461;28;20022;-72
2022/02/17 00:55:58;;;;;;;14.27;12.65;;;;;;;;;;5020756;28;20100;-72
2022/02/17 00:58:24;;;;;;;19.27;15.05;;;;;;;;;;4998368;28;20049;-73
2022/02/17 01:00:50;;;;;;;19.52;15.50;;;;;;;;;;5014140;28;20084;-73
2022/02/17 01:03:16;;;;;;;20.70;16.55;;;;;;;;;;5013834;28;20018;-73
2022/02/17 01:05:43;;;;;;;24.98;18.83;;;;;;;;;;5014529;28;20033;-73
2022/02/17 01:08:10;;;;;;;21.15;17.33;;;;;;;;;;5014659;28;20032;-76
2022/02/17 01:10:36;;;;;;;25.10;19.73;;;;;;;;;;5014848;28;20021;-72
2022/02/17 01:13:04;;;;;;;23.42;19.20;;;;;;;;;;5014007;28;20368;-73
2022/02/17 01:15:31;;;;;;;22.02;18.05;;;;;;;;;;5012495;28;20120;-73
2022/02/17 01:18:00;;;;;;;23.52;19.77;;;;;;;;;;5016379;28;20061;-72
2022/02/17 01:20:28;;;;;;;20.70;17.70;;;;;;;;;;4997223;28;20532;-71
2022/02/17 01:22:54;;;;;;;21.90;18.60;;;;;;;;;;5015063;28;20041;-73
2022/02/17 01:25:20;;;;;;;21.15;17.58;;;;;;;;;;5014377;28;20030;-72
2022/02/17 01:27:47;;;;;;;20.13;17.05;;;;;;;;;;5014176;28;20029;-73
2022/02/17 01:30:15;;;;;;;22.75;17.42;;;;;;;;;;5016150;28;20442;-75
2022/02/17 01:32:41;;;;;;;19.30;15.38;;;;;;;;;;5013983;28;20026;-72
2022/02/17 01:35:08;;;;;;;19.70;16.58;;;;;;;;;;5013492;28;20040;-73
2022/02/17 01:37:34;;;;;;;17.50;15.00;;;;;;;;;;5014242;28;20029;-72
2022/02/17 01:40:00;;;;;;;18.27;14.30;;;;;;;;;;5014238;28;20029;-71
2022/02/17 01:42:29;;;;;;;16.77;14.73;;;;;;;;;;5017834;28;20030;-76
2022/02/17 01:44:55;;;;;;;18.80;14.95;;;;;;;;;;5013842;28;20061;-73
2022/02/17 01:47:21;;;;;;;22.33;17.10;;;;;;;;;;5012851;28;20037;-73
2022/02/17 01:49:47;;;;;;;22.95;17.48;;;;;;;;;;5013851;28;20030;-72
2022/02/17 01:52:18;;;;;;;21.05;17.65;;;;;;;;;;5015414;28;20379;-72
2022/02/17 01:54:45;;;;;;;22.83;18.02;;;;;;;;;;4998167;28;20037;-72
2022/02/17 01:57:24;;;;;;;24.25;18.00;;;;;;;;;;5013179;28;20030;-73
2022/02/17 01:59:50;;;;;;;25.20;19.08;;;;;;;;;;4994465;28;20070;-73
2022/02/17 02:02:16;;;;;;;23.52;18.35;;;;;;;;;;4994093;28;20033;-73
2022/02/17 02:04:43;;;;;;;26.13;19.20;;;;;;;;;;5011980;28;20026;-72
2022/02/17 02:07:09;;;;;;;19.42;15.35;;;;;;;;;;5012581;28;20033;-72
2022/02/17 02:09:38;;;;;;;14.75;12.10;;;;;;;;;;5014911;28;20041;-72
2022/02/17 02:12:05;;;;;;;11.43;8.82;;;;;;;;;;4995804;28;20108;-72
2022/02/17 02:14:33;;;;;;;11.68;9.02;;;;;;;;;;5015398;28;20135;-74
2022/02/17 02:16:59;;;;;;;10.73;8.90;;;;;;;;;;5003487;28;20022;-71
2022/02/17 02:19:25;;;;;;;12.02;8.93;;;;;;;;;;5017928;28;20050;-75
2022/02/17 02:21:51;;;;;;;12.55;9.68;;;;;;;;;;5013039;28;20042;-72
2022/02/17 02:24:23;;;;;;;10.10;8.18;;;;;;;;;;5015185;28;20026;-72
2022/02/17 02:26:49;;;;;;;13.57;8.38;;;;;;;;;;5012674;28;20634;-73
2022/02/17 02:29:15;;;;;;;10.55;8.50;;;;;;;;;;5013559;28;20100;-72
2022/02/17 02:31:41;;;;;;;13.15;8.00;;;;;;;;;;4999210;28;20030;-73
2022/02/17 02:34:09;;;;;;;10.93;7.85;;;;;;;;;;5007182;28;20076;-73
2022/02/17 02:36:38;;;;;;;10.82;6.95;;;;;;;;;;5012605;28;20543;-73
2022/02/17 02:39:04;;;;;;;10.30;6.90;;;;;;;;;;5013535;28;20495;-73
2022/02/17 02:41:30;;;;;;;9.75;6.95;;;;;;;;;;5015807;28;20024;-74
2022/02/17 02:44:00;;;;;;;9.65;6.85;;;;;;;;;;5012506;28;20030;-73
2022/02/17 02:46:26;;;;;;;10.75;7.28;;;;;;;;;;5012990;28;20030;-73
2022/02/17 02:48:52;;;;;;;10.50;7.18;;;;;;;;;;5019296;28;20451;-73
2022/02/17 02:51:18;;;;;;;8.23;6.47;;;;;;;;;;5012965;28;20034;-72
2022/02/17 02:53:46;;;;;;;7.43;6.03;;;;;;;;;;5012827;28;20030;-71
2022/02/17 02:56:16;;;;;;;7.97;5.85;;;;;;;;;;5013208;28;20038;-73
2022/02/17 02:58:42;;;;;;;6.25;5.25;;;;;;;;;;5015418;28;20022;-74
2022/02/17 03:01:08;;;;;;;8.82;5.47;;;;;;;;;;5011575;28;20057;-73
2022/02/17 03:03:34;;;;;;;7.18;5.32;;;;;;;;;;5012105;28;20375;-73
2022/02/17 03:06:00;;;;;;;5.50;5.00;;;;;;;;;;5013200;28;20026;-74
2022/02/17 03:08:26;;;;;;;5.65;5.00;;;;;;;;;;5014893;28;20378;-73
2022/02/17 03:10:53;;;;;;;13.70;10.35;;;;;;;;;;4995701;28;20450;-72
2022/02/17 03:13:19;;;;;;;10.65;8.50;;;;;;;;;;5012013;28;20106;-72
2022/02/17 03:15:45;;;;;;;7.20;5.22;;;;;;;;;;5012473;28;20034;-73
2022/02/17 03:18:29;;;;;;;6.40;5.45;;;;;;;;;;5023483;28;20081;-74
2022/02/17 03:20:55;;;;;;;6.00;5.35;;;;;;;;;;4995433;28;20523;-73
2022/02/17 03:23:21;;;;;;;7.30;5.72;;;;;;;;;;4992637;28;20026;-73
2022/02/17 03:25:47;;;;;;;7.15;5.47;;;;;;;;;;4991926;28;20057;-75
2022/02/17 03:28:18;;;;;;;6.22;5.35;;;;;;;;;;4997702;28;20102;-72
2022/02/17 03:30:44;;;;;;;8.35;5.65;;;;;;;;;;4993006;28;20563;-72
2022/02/17 03:33:11;;;;;;;7.22;5.55;;;;;;;;;;4992673;28;20496;-73
2022/02/17 03:35:37;;;;;;;6.38;5.40;;;;;;;;;;4992497;28;20035;-72
2022/02/17 03:38:03;;;;;;;7.13;5.82;;;;;;;;;;4992478;28;20054;-73
2022/02/17 03:40:29;;;;;;;9.25;7.15;;;;;;;;;;4993081;28;20034;-74
2022/02/17 03:42:57;;;;;;;9.80;7.35;;;;;;;;;;4992750;28;20045;-73
2022/02/17 03:45:29;;;;;;;7.93;5.30;;;;;;;;;;4994035;28;20139;-72
2022/02/17 03:47:55;;;;;;;6.35;5.38;;;;;;;;;;4992456;28;20384;-72
2022/02/17 03:50:23;;;;;;;6.50;5.10;;;;;;;;;;4992608;28;20621;-74
2022/02/17 03:52:49;;;;;;;7.07;5.78;;;;;;;;;;4992897;28;20487;-72
2022/02/17 03:55:16;;;;;;;7.13;5.00;;;;;;;;;;4992754;28;20393;-72
2022/02/17 03:57:44;;;;;;;7.32;5.10;;;;;;;;;;4992900;28;20538;-72
2022/02/17 04:00:11;;;;;;;5.63;4.70;;;;;;;;;;4992436;28;20031;-74
2022/02/17 04:02:42;;;;;;;5.25;4.40;;;;;;;;;;4994502;28;20022;-73
2022/02/17 04:05:09;;;;;;;6.68;4.80;;;;;;;;;;4996399;28;20086;-73
2022/02/17 04:07:36;;;;;;;8.48;5.68;;;;;;;;;;4992958;28;20057;-73
2022/02/17 04:10:03;;;;;;;7.60;5.80;;;;;;;;;;4995528;28;20029;-72
2022/02/17 04:12:29;;;;;;;7.05;5.00;;;;;;;;;;4993778;28;20037;-73
2022/02/17 04:14:57;;;;;;;7.95;4.47;;;;;;;;;;4995825;28;20042;-72
2022/02/17 04:17:23;;;;;;;7.25;4.95;;;;;;;;;;4998835;28;20062;-72
2022/02/17 04:19:52;;;;;;;6.10;4.53;;;;;;;;;;5006874;28;20050;-73
2022/02/17 04:22:19;;;;;;;7.40;4.18;;;;;;;;;;5015297;28;20024;-72
2022/02/17 04:24:45;;;;;;;4.57;4.05;;;;;;;;;;5013878;28;20026;-72
2022/02/17 04:27:11;;;;;;;6.88;4.43;;;;;;;;;;5015358;28;20018;-74
2022/02/17 04:29:37;;;;;;;9.05;4.53;;;;;;;;;;5017479;28;20025;-73
2022/02/17 04:32:03;;;;;;;7.10;4.53;;;;;;;;;;5015533;28;20460;-74
2022/02/17 04:34:32;;;;;;;9.48;4.70;;;;;;;;;;5014842;28;20033;-72
2022/02/17 04:36:58;;;;;;;6.68;5.00;;;;;;;;;;5015354;28;20605;-73
2022/02/17 04:39:24;;;;;;;8.15;5.07;;;;;;;;;;5017612;28;20028;-72
2022/02/17 04:44:34;;;;;;;7.05;4.47;;;;;;;;;;5015276;28;20080;-72
2022/02/17 04:47:01;;;;;;;13.27;9.50;;;;;;;;;;5015086;28;20022;-72
2022/02/17 04:49:31;;;;;;;8.75;4.75;;;;;;;;;;5014783;28;20037;-73
2022/02/17 04:51:57;;;;;;;5.38;4.15;;;;;;;;;;5015050;28;20030;-72
2022/02/17 04:54:23;;;;;;;6.05;4.35;;;;;;;;;;5014938;28;20037;-72
2022/02/17 04:56:49;;;;;;;5.95;4.22;;;;;;;;;;5014656;28;20033;-73
2022/02/17 04:59:15;;;;;;;6.03;4.03;;;;;;;;;;4996916;28;20069;-73
2022/02/17 05:01:41;;;;;;;5.78;4.55;;;;;;;;;;5014608;28;20083;-72
2022/02/17 05:04:09;;;;;;;7.63;4.50;;;;;;;;;;5014523;28;20387;-72
2022/02/17 05:06:35;;;;;;;11.13;4.43;;;;;;;;;;5014626;28;20468;-72
2022/02/17 05:09:01;;;;;;;5.70;4.30;;;;;;;;;;5017969;28;20116;-72
2022/02/17 05:11:27;;;;;;;7.28;4.20;;;;;;;;;;5014264;28;20033;-72
2022/02/17 05:13:53;;;;;;;7.40;4.15;;;;;;;;;;4993962;28;20042;-77
2022/02/17 05:16:20;;;;;;;15.43;9.10;;;;;;;;;;5014888;28;20486;-74
2022/02/17 05:18:51;;;;;;;5.50;4.45;;;;;;;;;;5032874;28;20037;-73
2022/02/17 05:21:17;;;;;;;9.63;4.97;;;;;;;;;;5009976;28;20029;-74
2022/02/17 05:24:03;;;;;;;10.45;5.07;;;;;;;;;;5028362;28;20104;-74
2022/02/17 05:26:32;;;;;;;9.63;5.35;;;;;;;;;;5027459;28;20026;-74
2022/02/17 05:29:07;;;;;;;20.38;5.70;;;;;;;;;;5015810;28;20088;-74
2022/02/17 05:31:33;;;;;;;8.70;5.57;;;;;;;;;;5016262;28;20037;-76
2022/02/17 05:33:59;;;;;;;12.77;5.10;;;;;;;;;;5016424;28;20069;-75
2022/02/17 05:36:26;;;;;;;11.32;5.30;;;;;;;;;;5015623;28;20038;-75
2022/02/17 05:38:52;;;;;;;21.33;14.13;;;;;;;;;;5017876;28;20022;-78
2022/02/17 05:41:18;;;;;;;19.42;8.73;;;;;;;;;;5017921;28;20109;-74
2022/02/17 05:43:44;;;;;;;15.32;6.53;;;;;;;;;;5015612;28;20021;-73
2022/02/17 05:46:10;;;;;;;12.38;5.13;;;;;;;;;;5015869;28;20084;-77
2022/02/17 05:48:36;;;;;;;13.10;5.38;;;;;;;;;;5015206;28;20026;-73
2022/02/17 05:51:02;;;;;;;11.13;5.32;;;;;;;;;;5018001;28;20030;-75
2022/02/17 05:53:28;;;;;;;10.70;5.53;;;;;;;;;;5016253;28;20052;-76
2022/02/17 05:55:54;;;;;;;15.82;6.07;;;;;;;;;;5015550;28;20038;-74
2022/02/17 05:58:20;;;;;;;11.68;5.65;;;;;;;;;;5011027;28;20077;-76
2022/02/17 06:00:46;;;;;;;12.15;5.70;;;;;;;;;;5015138;28;20033;-73
2022/02/17 06:03:12;;;;;;;10.25;5.18;;;;;;;;;;5012836;28;20033;-75
2022/02/17 06:05:39;;;;;;;11.48;5.13;;;;;;;;;;5016125;28;20048;-73
2022/02/17 06:08:05;;;;;;;10.70;5.15;;;;;;;;;;4998090;28;20018;-75
2022/02/17 06:10:32;;;;;;;9.68;5.38;;;;;;;;;;5013438;28;20112;-74
2022/02/17 06:12:58;;;;;;;10.48;5.13;;;;;;;;;;5012502;28;20104;-74
2022/02/17 06:15:24;;;;;;;6.18;4.80;;;;;;;;;;5014322;28;20042;-74
2022/02/17 06:17:50;;;;;;;20.10;7.20;;;;;;;;;;5022289;28;20014;-75
2022/02/17 06:20:16;;;;;;;13.10;7.05;;;;;;;;;;5025226;28;20054;-75
2022/02/17 06:22:47;;;;;;;16.77;7.82;;;;;;;;;;5022642;28;20048;-75
2022/02/17 06:25:13;;;;;;;16.42;6.82;;;;;;;;;;5006524;28;20022;-78
2022/02/17 06:27:40;;;;;;;13.77;5.90;;;;;;;;;;5021317;28;20036;-77
2022/02/17 06:30:06;;;;;;;12.43;5.70;;;;;;;;;;5018567;28;20036;-77
2022/02/17 06:32:33;;;;;;;11.98;6.90;;;;;;;;;;5023016;28;20029;-78
2022/02/17 06:35:02;;;;;;;13.23;6.38;;;;;;;;;;5010389;28;20033;-77
2022/02/17 06:37:28;;;;;;;7.57;6.00;;;;;;;;;;5013056;28;20038;-78
2022/02/17 06:39:55;;;;;;;9.52;5.82;;;;;;;;;;5024630;28;20069;-76
2022/02/17 06:42:23;;;;;;;18.48;8.23;;;;;;;;;;5012756;28;20087;-78
2022/02/17 06:44:49;;;;;;;26.20;11.05;;;;;;;;;;5007412;28;20030;-77
2022/02/17 06:47:15;;;;;;;12.52;7.05;;;;;;;;;;5005957;28;20486;-76
2022/02/17 06:49:41;;;;;;;20.27;8.02;;;;;;;;;;5024453;28;20030;-78
2022/02/17 06:52:12;;;;;;;14.82;7.20;;;;;;;;;;5024924;28;20054;-76
2022/02/17 06:54:41;;;;;;;11.80;6.25;;;;;;;;;;5026118;28;20034;-76
2022/02/17 06:57:08;;;;;;;9.95;6.13;;;;;;;;;;5026704;28;20388;-75
2022/02/17 06:59:34;;;;;;;11.68;7.03;;;;;;;;;;5006347;28;20053;-73
2022/02/17 07:02:01;;;;;;;24.52;9.20;;;;;;;;;;5008173;28;20073;-76
2022/02/17 07:04:27;;;;;;;21.80;8.43;;;;;;;;;;5021513;28;20480;-75
2022/02/17 07:06:54;;;;;;;18.73;7.65;;;;;;;;;;5020991;28;20068;-78
2022/02/17 07:09:20;;;;;;;17.20;7.35;;;;;;;;;;5012865;28;20534;-75
2022/02/17 07:11:46;;;;;;;16.45;7.13;;;;;;;;;;5007907;28;20394;-73
2022/02/17 07:14:13;;;;;;;29.80;8.30;;;;;;;;;;4984598;28;20022;-76
2022/02/17 07:16:40;;;;;;;18.45;9.48;;;;;;;;;;5017227;28;20014;-73
2022/02/17 07:19:06;;;;;;;21.80;11.82;;;;;;;;;;5003822;28;20050;-74
2022/02/17 07:21:32;;;;;;;21.80;9.40;;;;;;;;;;5019761;28;20480;-73
2022/02/17 07:23:58;;;;;;;16.52;8.98;;;;;;;;;;5016111;28;20035;-73
2022/02/17 07:26:24;;;;;;;17.13;6.90;;;;;;;;;;5014249;28;20022;-75
2022/02/17 07:28:51;;;;;;;17.60;6.85;;;;;;;;;;5014913;28;20061;-76
2022/02/17 07:31:17;;;;;;;17.65;9.05;;;;;;;;;;5018385;28;20033;-76
2022/02/17 07:33:43;;;;;;;24.40;11.20;;;;;;;;;;5009926;28;20092;-73
2022/02/17 07:36:09;;;;;;;19.33;8.15;;;;;;;;;;5013681;28;20048;-77
2022/02/17 07:38:39;;;;;;;19.30;9.52;;;;;;;;;;5018242;28;20113;-75
2022/02/17 07:41:06;;;;;;;28.58;11.73;;;;;;;;;;5018364;28;20030;-75
2022/02/17 07:43:32;;;;;;;31.83;10.00;;;;;;;;;;5022018;28;20432;-72
2022/02/17 07:46:00;;;;;;;20.42;7.55;;;;;;;;;;5025105;28;20118;-72
2022/02/17 07:48:26;;;;;;;21.13;10.98;;;;;;;;;;5022788;28;20053;-72
2022/02/17 07:50:53;;;;;;;17.08;6.53;;;;;;;;;;5023867;28;20097;-72
2022/02/17 07:53:19;;;;;;;14.95;5.88;;;;;;;;;;5025472;28;20033;-72
2022/02/17 07:55:45;;;;;;;14.32;6.80;;;;;;;;;;5026035;28;20061;-73
2022/02/17 07:58:15;;;;;;;15.50;6.22;;;;;;;;;;5023232;28;20022;-77
2022/02/17 08:00:44;;;;;;;9.80;5.60;;;;;;;;;;5022590;28;20029;-77
2022/02/17 08:03:13;;;;;;;14.52;5.63;;;;;;;;;;5017759;28;20102;-76
2022/02/17 08:05:39;;;;;;;12.38;6.57;;;;;;;;;;5012597;28;20050;-78
2022/02/17 08:08:05;;;;;;;14.85;5.90;;;;;;;;;;5029599;28;20022;-75
2022/02/17 08:10:32;;;;;;;19.92;9.82;;;;;;;;;;5026386;28;20030;-76
2022/02/17 08:12:58;;;;;;;12.85;5.97;;;;;;;;;;5035778;28;20030;-77
2022/02/17 08:15:24;;;;;;;8.27;5.05;;;;;;;;;;5028934;28;20097;-75
2022/02/17 08:17:50;;;;;;;10.45;6.72;;;;;;;;;;5028171;28;20033;-75
2022/02/17 08:20:19;;;;;;;13.45;6.30;;;;;;;;;;5035416;28;20058;-77
2022/02/17 08:22:49;;;;;;;12.40;8.85;;;;;;;;;;5029591;28;20022;-77
2022/02/17 08:25:15;;;;;;;10.90;5.47;;;;;;;;;;5017820;28;20018;-75
2022/02/17 08:27:41;;;;;;;11.32;5.95;;;;;;;;;;5023396;28;20074;-73
2022/02/17 08:30:08;;;;;;;10.05;5.82;;;;;;;;;;5019812;28;20479;-72
2022/02/17 08:32:37;;;;;;;8.43;5.32;;;;;;;;;;5026820;28;20038;-77
2022/02/17 08:35:05;;;;;;;11.23;5.75;;;;;;;;;;5024247;28;20030;-79
2022/02/17 08:37:31;;;;;;;17.60;8.60;;;;;;;;;;5011596;28;20033;-77
2022/02/17 08:39:57;;;;;;;11.45;5.40;;;;;;;;;;5026715;28;20081;-75
2022/02/17 08:42:23;;;;;;;16.33;7.30;;;;;;;;;;5018976;28;20108;-79
2022/02/17 08:44:49;;;;;;;13.30;5.65;;;;;;;;;;5028063;28;20092;-79
2022/02/17 08:47:17;;;;;;;8.68;5.13;;;;;;;;;;5031023;28;20014;-78
2022/02/17 08:50:01;;;;;;;12.57;6.57;;;;;;;;;;5018888;28;20117;-75
2022/02/17 08:52:27;;;;;;;13.27;6.75;;;;;;;;;;4991906;28;20034;-74
2022/02/17 08:54:54;;;;;;;15.30;7.55;;;;;;;;;;5021031;28;20044;-73
2022/02/17 08:57:20;;;;;;;18.17;8.13;;;;;;;;;;5011970;28;20034;-74
2022/02/17 08:59:46;;;;;;;15.75;7.45;;;;;;;;;;5023360;28;20033;-76
2022/02/17 09:02:12;;;;;;;17.90;7.43;;;;;;;;;;5029698;28;20054;-77
2022/02/17 09:04:56;;;;;;;16.20;8.07;;;;;;;;;;5011502;28;20029;-79
2022/02/17 09:07:23;;;;;;;13.18;7.05;;;;;;;;;;5012175;28;20046;-77
2022/02/17 09:09:51;;;;;;;12.70;7.45;;;;;;;;;;5019615;28;20022;-77
2022/02/17 09:12:21;;;;;;;15.63;8.70;;;;;;;;;;5002936;28;20444;-75
2022/02/17 09:14:49;;;;;;;14.65;7.80;;;;;;;;;;5019941;28;20040;-73
2022/02/17 09:17:15;;;;;;;12.32;6.68;;;;;;;;;;5000716;28;20096;-77
2022/02/17 09:20:08;;;;;;;15.95;8.80;;;;;;;;;;5005705;28;20140;-80
2022/02/17 09:25:10;;;;;;;13.20;6.60;;;;;;;;;;5161045;23;19989;-73
2022/02/17 09:27:40;;;;;;;9.88;5.55;;;;;;;;;;4981483;28;20034;-73
2022/02/17 09:30:10;;;;;;;7.88;4.88;;;;;;;;;;5006687;28;20030;-74
2022/02/17 09:32:39;;;;;;;8.18;5.65;;;;;;;;;;5006785;28;20042;-73
2022/02/17 09:35:13;;;;;;;11.70;5.60;;;;;;;;;;4991499;28;20110;-74
2022/02/17 09:37:44;;;;;;;7.45;4.85;;;;;;;;;;5007281;28;20031;-72
2022/02/17 09:40:37;;;;;;;10.50;4.70;;;;;;;;;;4965577;28;20042;-74
2022/02/17 09:50:57;;;;;;;8.10;5.70;;;;;;;;;;5187283;23;20111;-75
2022/02/17 09:53:26;;;;;;;13.57;6.53;;;;;;;;;;5021117;28;20026;-76
2022/02/17 09:55:52;;;;;;;13.50;8.23;;;;;;;;;;5003815;28;20088;-75
2022/02/17 09:58:19;;;;;;;8.25;5.53;;;;;;;;;;5034130;28;20028;-74
2022/02/17 10:00:45;;;;;;;13.60;6.20;;;;;;;;;;5032152;28;20028;-74
2022/02/17 10:03:22;;;;;;;15.85;10.77;;;;;;;;;;5034435;28;20025;-76
2022/02/17 10:06:03;;;;;;;11.50;6.78;;;;;;;;;;5018707;28;20032;-77
2022/02/17 10:11:05;;;;;;;13.85;9.65;;;;;;;;;;4980352;28;20043;-75
2022/02/17 10:13:32;;;;;;;14.38;8.68;;;;;;;;;;4978320;28;20061;-76
2022/02/17 10:15:58;;;;;;;8.63;6.15;;;;;;;;;;4971979;28;20069;-75
2022/02/17 10:18:27;;;;;;;10.05;5.57;;;;;;;;;;4965257;28;20031;-75
2022/02/17 10:21:07;;;;;;;16.60;6.03;;;;;;;;;;4957493;29;20023;-75
2022/02/17 10:23:36;;;;;;;9.75;4.53;;;;;;;;;;4945236;29;20059;-78
2022/02/17 10:26:04;;;;;;;7.35;4.28;;;;;;;;;;4962344;29;20031;-77
2022/02/17 10:28:33;;;;;;;12.00;5.30;;;;;;;;;;4960315;29;20380;-77
2022/02/17 10:30:59;;;;;;;10.63;6.35;;;;;;;;;;4955013;29;20500;-78
2022/02/17 10:33:36;;;;;;;9.00;5.10;;;;;;;;;;4938436;29;20062;-78
2022/02/17 10:36:02;;;;;;;13.50;5.72;;;;;;;;;;4951285;29;20039;-77
2022/02/17 10:38:28;;;;;;;10.07;6.13;;;;;;;;;;4957184;29;20029;-78
2022/02/17 10:40:54;;;;;;;11.57;6.60;;;;;;;;;;4937975;29;20448;-77
2022/02/17 10:43:22;;;;;;;17.30;11.88;;;;;;;;;;4939703;29;20030;-78
2022/02/17 10:45:49;;;;;;;11.27;6.63;;;;;;;;;;4957637;29;20038;-78
2022/02/17 10:48:28;;;;;;;11.30;7.28;;;;;;;;;;4941922;29;20031;-76
2022/02/17 10:51:06;;;;;;;11.77;7.70;;;;;;;;;;4949982;29;20028;-78
2022/02/17 10:53:35;;;;;;;9.70;6.75;;;;;;;;;;4932983;29;20062;-78
2022/02/17 10:56:04;;;;;;;17.85;10.15;;;;;;;;;;4955967;29;20039;-77
2022/02/17 10:58:31;;;;;;;12.38;8.50;;;;;;;;;;4938862;29;20055;-77
2022/02/17 11:01:01;;;;;;;10.63;7.50;;;;;;;;;;4938384;29;20043;-77
2022/02/17 11:03:32;;;;;;;10.82;7.45;;;;;;;;;;4931286;29;20046;-76
2022/02/17 11:05:58;;;;;;;20.92;12.30;;;;;;;;;;4931032;29;20051;-76
2022/02/17 11:08:24;;;;;;;17.85;9.60;;;;;;;;;;4936887;29;20039;-77
2022/02/17 11:10:50;;;;;;;15.05;9.25;;;;;;;;;;4970247;28;20046;-76
2022/02/17 11:13:20;;;;;;;19.38;10.85;;;;;;;;;;4975502;28;20082;-75
2022/02/17 11:15:47;;;;;;;19.58;11.82;;;;;;;;;;4971994;28;20051;-76
2022/02/17 11:18:15;;;;;;;23.17;13.35;;;;;;;;;;4976413;28;20031;-76
2022/02/17 11:20:42;;;;;;;22.98;13.23;;;;;;;;;;4977245;28;20031;-78
2022/02/17 11:23:08;;;;;;;24.05;11.63;;;;;;;;;;4977743;28;20066;-76
2022/02/17 11:25:36;;;;;;;20.25;12.02;;;;;;;;;;4972626;28;20027;-75
2022/02/17 11:28:14;;;;;;;21.27;12.77;;;;;;;;;;4968328;28;20028;-76
2022/02/17 11:30:42;;;;;;;14.93;9.43;;;;;;;;;;4975947;28;20038;-76
2022/02/17 11:33:25;;;;;;;15.77;9.23;;;;;;;;;;4973538;28;20038;-76
2022/02/17 11:36:10;;;;;;;17.50;10.70;;;;;;;;;;4974821;28;20095;-75
2022/02/17 11:38:37;;;;;;;15.95;10.45;;;;;;;;;;4977613;28;20519;-76
2022/02/17 11:41:14;;;;;;;26.67;10.93;;;;;;;;;;4979222;28;20078;-76
2022/02/17 11:43:41;;;;;;;12.32;7.97;;;;;;;;;;4995504;28;20099;-77
2022/02/17 11:46:09;;;;;;;12.57;7.68;;;;;;;;;;4983540;28;20369;-76
2022/02/17 11:49:02;;;;;;;16.65;11.13;;;;;;;;;;4969435;28;20031;-77
2022/02/17 11:51:29;;;;;;;15.30;8.23;;;;;;;;;;4979455;28;20042;-76
2022/02/17 11:54:15;;;;;;;15.20;7.68;;;;;;;;;;4983904;28;20038;-77
2022/02/17 11:56:47;;;;;;;10.80;6.93;;;;;;;;;;4989616;28;20054;-77
2022/02/17 11:59:40;;;;;;;24.45;13.60;;;;;;;;;;4965378;28;20034;-77
2022/02/17 12:02:38;;;;;;;15.73;10.30;;;;;;;;;;4905099;29;20109;-77
2022/02/17 12:05:37;;;;;;;19.58;12.82;;;;;;;;;;4927724;29;20032;-79
2022/02/17 12:08:24;;;;;;;23.63;16.48;;;;;;;;;;4937844;29;20036;-77
2022/02/17 12:10:54;;;;;;;18.40;11.70;;;;;;;;;;4933706;29;20044;-74
2022/02/17 12:13:27;;;;;;;15.10;11.60;;;;;;;;;;4921576;29;20056;-75
2022/02/17 12:15:55;;;;;;;15.43;8.63;;;;;;;;;;4933509;29;20058;-78
2022/02/17 12:18:22;;;;;;;12.82;7.00;;;;;;;;;;4917306;29;20107;-76
2022/02/17 12:20:58;;;;;;;12.27;7.90;;;;;;;;;;4928176;29;20039;-77
2022/02/17 12:23:27;;;;;;;15.32;9.27;;;;;;;;;;4884880;29;20049;-76
2022/02/17 12:25:59;;;;;;;9.60;5.50;;;;;;;;;;4885860;29;20048;-77
2022/02/17 12:28:34;;;;;;;11.32;6.00;;;;;;;;;;4875105;29;20405;-77
2022/02/17 12:31:06;;;;;;;20.10;11.73;;;;;;;;;;4875717;29;20029;-77
2022/02/17 12:33:33;;;;;;;14.80;8.63;;;;;;;;;;4884013;29;20044;-75
2022/02/17 12:36:13;;;;;;;6.05;4.10;;;;;;;;;;4876312;29;20043;-76
2022/02/17 12:38:39;;;;;;;9.70;6.07;;;;;;;;;;4903713;29;20071;-75
2022/02/17 12:41:08;;;;;;;11.07;7.20;;;;;;;;;;4946136;29;20151;-77
2022/02/17 12:43:35;;;;;;;8.70;5.10;;;;;;;;;;4946700;29;20085;-76
2022/02/17 12:46:03;;;;;;;8.35;3.80;;;;;;;;;;4940416;29;20059;-77
2022/02/17 12:48:32;;;;;;;7.20;4.32;;;;;;;;;;4946879;29;20505;-75
2022/02/17 12:50:58;;;;;;;7.22;4.63;;;;;;;;;;4971748;28;20026;-77
2022/02/17 12:53:25;;;;;;;10.60;6.82;;;;;;;;;;4938136;29;20036;-77
2022/02/17 12:55:52;;;;;;;7.25;4.55;;;;;;;;;;4960715;28;20051;-76
2022/02/17 12:58:27;;;;;;;8.23;5.65;;;;;;;;;;4960447;29;20669;-76
2022/02/17 13:00:53;;;;;;;7.93;4.60;;;;;;;;;;4944183;29;20512;-75
2022/02/17 13:03:42;;;;;;;10.10;5.18;;;;;;;;;;4941807;29;20494;-77
2022/02/17 13:06:17;;;;;;;8.25;5.65;;;;;;;;;;4960116;28;20165;-77
2022/02/17 13:08:46;;;;;;;9.70;5.18;;;;;;;;;;4960813;29;20073;-77
2022/02/17 13:11:13;;;;;;;10.98;6.45;;;;;;;;;;4949652;29;20142;-76
2022/02/17 13:13:39;;;;;;;22.83;14.48;;;;;;;;;;4951482;28;20045;-77
2022/02/17 13:16:06;;;;;;;20.73;12.60;;;;;;;;;;4975235;28;20378;-76
2022/02/17 13:18:32;;;;;;;24.08;14.70;;;;;;;;;;4978296;28;20029;-76
2022/02/17 13:21:10;;;;;;;21.40;11.93;;;;;;;;;;4977438;28;20041;-78
2022/02/17 13:23:37;;;;;;;10.43;5.70;;;;;;;;;;4963032;28;20038;-76
2022/02/17 13:26:04;;;;;;;10.10;6.68;;;;;;;;;;4980860;28;20505;-77
2022/02/17 13:31:32;;;;;;;11.00;4.60;;;;;;;;;;5114387;23;20116;-79
2022/02/17 13:34:19;;;;;;;11.13;6.43;;;;;;;;;;4995786;28;20045;-76
2022/02/17 13:36:45;;;;;;;13.65;7.97;;;;;;;;;;5013031;28;20026;-74
2022/02/17 13:39:37;;;;;;;9.93;5.32;;;;;;;;;;4994878;28;20105;-79
2022/02/17 13:42:54;;;;;;;6.25;4.60;;;;;;;;;;4938037;29;20039;-76
2022/02/17 13:45:56;;;;;;;8.52;4.43;;;;;;;;;;4933064;29;20032;-77
2022/02/17 13:48:53;;;;;;;10.00;4.45;;;;;;;;;;4947581;29;20032;-79
2022/02/17 13:51:25;;;;;;;12.13;5.28;;;;;;;;;;4946366;29;20051;-80
2022/02/17 13:53:58;;;;;;;10.65;6.30;;;;;;;;;;4938599;29;20461;-77
2022/02/17 13:56:25;;;;;;;18.05;8.13;;;;;;;;;;4918436;29;20036;-76
2022/02/17 13:58:58;;;;;;;5.13;3.38;;;;;;;;;;4939100;29;20055;-76
2022/02/17 14:01:44;;;;;;;8.95;3.85;;;;;;;;;;4935565;29;20040;-74
2022/02/17 14:04:14;;;;;;;6.07;3.75;;;;;;;;;;4931865;29;20096;-74
2022/02/17 14:06:42;;;;;;;7.88;5.25;;;;;;;;;;4927105;29;20019;-76
2022/02/17 14:09:08;;;;;;;7.03;3.78;;;;;;;;;;4924309;29;20028;-75
2022/02/17 14:11:35;;;;;;;7.85;4.00;;;;;;;;;;4936796;28;20491;-78
2022/02/17 14:14:03;;;;;;;11.38;3.40;;;;;;;;;;4925110;29;20495;-75
2022/02/17 14:16:31;;;;;;;7.63;3.88;;;;;;;;;;4934895;29;20036;-73
2022/02/17 14:19:05;;;;;;;4.55;3.20;;;;;;;;;;4956280;28;20118;-73
2022/02/17 14:21:36;;;;;;;7.13;3.67;;;;;;;;;;4975721;28;20129;-73
2022/02/17 14:24:05;;;;;;;6.60;2.90;;;;;;;;;;5000276;28;20011;-75
2022/02/17 14:26:34;;;;;;;5.00;3.28;;;;;;;;;;4997008;28;20037;-75
2022/02/17 14:29:02;;;;;;;5.43;2.70;;;;;;;;;;4986309;28;20070;-77
2022/02/17 14:31:31;;;;;;;8.95;2.95;;;;;;;;;;4989302;28;20069;-79
2022/02/17 14:34:09;;;;;;;6.50;2.95;;;;;;;;;;4978050;28;20042;-78
2022/02/17 14:36:36;;;;;;;7.28;2.80;;;;;;;;;;4977531;28;20046;-77
2022/02/17 14:39:04;;;;;;;5.75;3.53;;;;;;;;;;4969889;28;20023;-77
2022/02/17 14:41:30;;;;;;;3.97;2.88;;;;;;;;;;4977926;28;20104;-76
2022/02/17 14:43:56;;;;;;;8.52;3.60;;;;;;;;;;4967251;28;20031;-75
2022/02/17 14:46:23;;;;;;;7.32;3.17;;;;;;;;;;4988167;28;20034;-73
2022/02/17 14:48:50;;;;;;;5.50;3.50;;;;;;;;;;4989980;28;20046;-75
2022/02/17 14:51:16;;;;;;;5.18;3.40;;;;;;;;;;4973611;28;20054;-77
2022/02/17 14:53:43;;;;;;;7.10;3.53;;;;;;;;;;4998994;28;20062;-75
2022/02/17 14:56:09;;;;;;;4.80;3.42;;;;;;;;;;4982005;28;20392;-74
2022/02/17 15:01:42;;;;;;;11.88;7.88;;;;;;;;;;4917585;29;20106;-76
2022/02/17 15:04:09;;;;;;;5.75;3.00;;;;;;;;;;4876370;29;20036;-76